Time;durP1;ratioP1;P1;durP2;ratioP2;P2;SDS_P1;SDS_P2;PMS_P1;PMS_P2;Temp;Humidity;BMP_temperature;BMP_pressure;BME280_temperature;BME280_humidity;BME280_pressure;Samples;Min_cycle;Max_cycle;Signal;HPM_P1;HPM_P2
2022/01/20 00:00:18;;;;;;;5.53;4.53;;;5.20;99.90;;;;;;5122564;27;20106;-70
2022/01/20 00:02:46;;;;;;;8.25;4.68;;;5.20;99.90;;;;;;5115713;28;20027;-70
2022/01/20 00:05:39;;;;;;;5.72;4.10;;;5.20;99.90;;;;;;5113782;28;20142;-67
2022/01/20 00:08:09;;;;;;;5.95;4.72;;;5.20;99.90;;;;;;5114638;28;20044;-68
2022/01/20 00:27:07;;;;;;;5.47;4.82;;;5.40;99.90;;;;;;5114853;28;20070;-68
2022/01/20 00:29:51;;;;;;;6.85;4.25;;;5.50;99.90;;;;;;5113956;28;20023;-68
2022/01/20 00:32:19;;;;;;;7.50;4.38;;;5.40;99.90;;;;;;5112851;28;20058;-67
2022/01/20 00:37:26;;;;;;;5.75;4.25;;;5.40;99.90;;;;;;5114582;28;20027;-70
2022/01/20 00:39:51;;;;;;;5.38;4.10;;;5.50;99.90;;;;;;5112175;28;20027;-70
2022/01/20 00:42:17;;;;;;;6.88;4.50;;;5.50;99.90;;;;;;5113850;27;20026;-70
2022/01/20 00:44:44;;;;;;;5.90;4.28;;;5.50;99.90;;;;;;5112325;28;20046;-69
2022/01/20 00:47:11;;;;;;;6.47;4.53;;;5.50;99.90;;;;;;5114009;28;20095;-69
2022/01/20 00:49:36;;;;;;;6.45;4.53;;;5.50;99.90;;;;;;5113730;28;20061;-69
2022/01/20 00:52:04;;;;;;;6.55;4.63;;;5.40;99.90;;;;;;5113606;28;20106;-67
2022/01/20 00:54:30;;;;;;;6.60;4.57;;;5.50;99.90;;;;;;5112772;28;20028;-70
2022/01/20 00:56:56;;;;;;;7.47;4.35;;;5.60;99.90;;;;;;5113548;28;20042;-70
2022/01/20 00:59:22;;;;;;;5.53;4.78;;;5.50;99.90;;;;;;5114190;28;20023;-68
2022/01/20 01:01:48;;;;;;;6.75;4.72;;;5.60;99.90;;;;;;5113141;28;20027;-69
2022/01/20 01:04:14;;;;;;;5.88;4.78;;;5.50;99.90;;;;;;5114203;28;20031;-66
2022/01/20 01:09:11;;;;;;;6.05;4.50;;;5.40;99.90;;;;;;5113497;28;20030;-65
2022/01/20 01:11:39;;;;;;;6.28;4.80;;;5.50;99.90;;;;;;5112899;28;20028;-71
2022/01/20 01:14:05;;;;;;;5.75;4.78;;;5.50;99.90;;;;;;5113645;28;20015;-69
2022/01/20 01:22:03;;;;;;;6.60;4.40;;;5.60;99.90;;;;;;5112864;28;20088;-67
2022/01/20 01:24:29;;;;;;;5.80;4.50;;;5.50;99.90;;;;;;5112121;28;20048;-65
2022/01/20 01:26:55;;;;;;;6.13;4.63;;;5.50;99.90;;;;;;5112565;28;20185;-67
2022/01/20 01:29:44;;;;;;;6.15;4.40;;;5.50;99.90;;;;;;5111449;28;20020;-72
2022/01/20 01:32:09;;;;;;;8.10;4.68;;;5.50;99.90;;;;;;5115683;28;20425;-69
2022/01/20 01:34:39;;;;;;;5.78;4.32;;;5.50;99.90;;;;;;5098670;28;20034;-67
2022/01/20 01:37:07;;;;;;;8.63;4.97;;;5.50;99.90;;;;;;5119911;28;20091;-69
2022/01/20 01:39:34;;;;;;;8.82;5.18;;;5.50;99.90;;;;;;5116969;28;20019;-70
2022/01/20 01:42:00;;;;;;;9.05;5.55;;;5.50;99.90;;;;;;5116948;28;20462;-66
2022/01/20 01:44:29;;;;;;;5.55;4.13;;;5.50;99.90;;;;;;5117080;28;20020;-67
2022/01/20 01:46:57;;;;;;;7.90;4.78;;;5.60;99.90;;;;;;5115042;28;20031;-67
2022/01/20 01:49:23;;;;;;;5.85;4.35;;;5.40;99.90;;;;;;5116348;28;20024;-70
2022/01/20 01:51:49;;;;;;;7.63;4.82;;;5.50;99.90;;;;;;5117136;28;20031;-72
2022/01/20 01:54:16;;;;;;;7.63;4.55;;;5.40;99.90;;;;;;5117444;28;20028;-67
2022/01/20 01:56:42;;;;;;;6.35;4.13;;;5.40;99.90;;;;;;5116849;28;20434;-71
2022/01/20 01:59:09;;;;;;;9.68;5.25;;;5.40;99.90;;;;;;5120856;28;20424;-66
2022/01/20 02:01:37;;;;;;;6.57;4.63;;;5.30;99.90;;;;;;5117813;28;20027;-73
2022/01/20 02:04:15;;;;;;;11.55;4.90;;;5.30;99.90;;;;;;5117585;28;20529;-70
2022/01/20 02:07:12;;;;;;;6.10;4.35;;;5.40;99.90;;;;;;5117239;28;20028;-67
2022/01/20 02:17:55;;;;;;;11.65;4.30;;;5.30;99.90;;;;;;5119480;27;20081;-72
2022/01/20 02:20:21;;;;;;;7.82;4.60;;;5.30;99.90;;;;;;5119064;28;20097;-72
2022/01/20 02:22:47;;;;;;;11.05;4.88;;;5.30;99.90;;;;;;5118379;28;20638;-72
2022/01/20 02:25:31;;;;;;;9.75;5.75;;;5.40;99.90;;;;;;5119723;28;20365;-71
2022/01/20 02:27:59;;;;;;;10.02;6.35;;;5.50;99.90;;;;;;5118101;28;20032;-71
2022/01/20 02:30:28;;;;;;;12.18;5.75;;;5.50;99.90;;;;;;5120590;28;20043;-68
2022/01/20 02:32:56;;;;;;;10.73;4.78;;;5.50;99.90;;;;;;5137753;27;20031;-68
2022/01/20 02:35:26;;;;;;;16.75;6.55;;;5.50;99.90;;;;;;5141323;27;20058;-74
2022/01/20 02:38:01;;;;;;;14.65;5.07;;;5.40;99.90;;;;;;5141930;27;20035;-70
2022/01/20 02:44:49;;;;;;;15.48;5.60;;;5.50;99.90;;;;;;5136406;27;20031;-71
2022/01/20 02:46:09;;;;;;;11.20;5.32;;;5.50;99.90;;;;;;5117796;28;20110;-70
2022/01/20 02:48:36;;;;;;;11.80;4.75;;;5.60;99.90;;;;;;5118353;28;20024;-71
2022/01/20 02:51:02;;;;;;;10.52;4.70;;;5.60;99.90;;;;;;5118434;28;20028;-73
2022/01/20 02:53:27;;;;;;;12.00;4.50;;;5.60;99.90;;;;;;5120364;28;20493;-72
2022/01/20 02:55:53;;;;;;;16.27;4.72;;;5.60;99.90;;;;;;5118286;28;20038;-70
2022/01/20 02:58:19;;;;;;;8.02;4.88;;;5.60;99.90;;;;;;5119930;28;20421;-73
2022/01/20 03:00:45;;;;;;;12.15;5.45;;;5.50;99.90;;;;;;5120063;28;20023;-71
2022/01/20 03:03:11;;;;;;;12.07;4.45;;;5.60;99.90;;;;;;5119166;28;20051;-71
2022/01/20 03:05:36;;;;;;;10.40;4.60;;;5.50;99.90;;;;;;5119015;28;20056;-72
2022/01/20 03:08:03;;;;;;;13.70;5.00;;;5.50;99.90;;;;;;5119936;28;20023;-73
2022/01/20 03:10:29;;;;;;;12.25;4.47;;;5.50;99.90;;;;;;5118998;28;20487;-73
2022/01/20 03:12:56;;;;;;;13.05;6.25;;;5.40;99.90;;;;;;5120917;28;20031;-72
2022/01/20 03:15:22;;;;;;;10.73;5.13;;;5.40;99.90;;;;;;5120072;28;20081;-70
2022/01/20 03:17:48;;;;;;;10.32;4.70;;;5.50;99.90;;;;;;5118812;28;20031;-72
2022/01/20 03:20:14;;;;;;;13.50;5.75;;;5.30;99.90;;;;;;5120384;28;20077;-71
2022/01/20 03:22:39;;;;;;;10.05;4.70;;;5.30;99.90;;;;;;5119579;28;20034;-72
2022/01/20 03:25:05;;;;;;;10.77;4.95;;;5.30;99.90;;;;;;5118563;28;20464;-71
2022/01/20 03:27:32;;;;;;;11.30;5.63;;;5.30;99.90;;;;;;5119101;28;20030;-68
2022/01/20 03:29:58;;;;;;;12.25;6.50;;;5.30;99.90;;;;;;5119356;28;20027;-75
2022/01/20 03:32:24;;;;;;;14.93;5.50;;;5.30;99.90;;;;;;5119220;28;20039;-75
2022/01/20 03:34:50;;;;;;;12.60;4.95;;;5.40;99.90;;;;;;5118066;28;20027;-72
2022/01/20 03:37:15;;;;;;;17.23;4.97;;;5.30;99.90;;;;;;5118136;28;20035;-72
2022/01/20 03:39:41;;;;;;;12.23;5.45;;;5.30;99.90;;;;;;5117435;27;20031;-74
2022/01/20 03:42:07;;;;;;;10.48;4.93;;;5.10;99.90;;;;;;5118605;28;20031;-74
2022/01/20 03:44:32;;;;;;;19.65;5.60;;;5.00;99.90;;;;;;5117108;28;20371;-71
2022/01/20 03:47:01;;;;;;;16.42;6.65;;;5.10;99.90;;;;;;5118247;28;20095;-73
2022/01/20 03:49:40;;;;;;;15.10;7.05;;;5.10;99.90;;;;;;5120928;27;20024;-71
2022/01/20 03:52:07;;;;;;;14.23;5.43;;;4.90;99.90;;;;;;5117432;28;20387;-73
2022/01/20 03:54:33;;;;;;;15.75;5.60;;;4.90;99.90;;;;;;5117382;28;20055;-74
2022/01/20 03:56:59;;;;;;;22.30;5.53;;;5.00;99.90;;;;;;5116135;28;20058;-71
2022/01/20 03:59:25;;;;;;;18.25;6.93;;;4.90;99.90;;;;;;5117118;28;20042;-72
2022/01/20 04:01:51;;;;;;;12.95;5.72;;;4.90;99.90;;;;;;5115175;28;20027;-72
2022/01/20 04:04:17;;;;;;;20.02;6.60;;;4.90;99.90;;;;;;5117131;28;20180;-72
2022/01/20 04:06:42;;;;;;;21.55;6.55;;;5.00;99.90;;;;;;5118471;28;20035;-69
2022/01/20 04:09:11;;;;;;;21.77;6.13;;;5.10;99.90;;;;;;5116285;28;20096;-73
2022/01/20 04:11:36;;;;;;;16.48;6.88;;;4.90;99.90;;;;;;5119659;28;20036;-73
2022/01/20 04:14:03;;;;;;;22.00;6.03;;;5.00;99.90;;;;;;5118197;28;20024;-72
2022/01/20 04:16:38;;;;;;;24.05;5.78;;;4.90;99.90;;;;;;5119845;28;20059;-72
2022/01/20 04:19:08;;;;;;;19.02;5.80;;;4.90;99.90;;;;;;5117795;28;20019;-71
2022/01/20 04:21:35;;;;;;;34.42;6.72;;;4.90;99.90;;;;;;5120157;28;20123;-73
2022/01/20 04:24:03;;;;;;;15.82;5.18;;;4.90;99.90;;;;;;5119056;28;20043;-70
2022/01/20 04:26:30;;;;;;;20.92;6.20;;;5.00;99.90;;;;;;5119202;28;20491;-73
2022/01/20 04:28:57;;;;;;;21.45;6.22;;;5.30;99.90;;;;;;5118576;28;20016;-72
2022/01/20 04:31:30;;;;;;;19.02;5.75;;;5.10;99.90;;;;;;5118634;28;20081;-70
2022/01/20 04:33:57;;;;;;;17.73;7.10;;;5.10;99.90;;;;;;5118625;28;20077;-71
2022/01/20 04:36:28;;;;;;;16.27;5.63;;;5.20;99.90;;;;;;5117987;28;20105;-72
2022/01/20 04:38:54;;;;;;;21.50;6.45;;;5.10;99.90;;;;;;5100557;28;20095;-68
2022/01/20 04:41:21;;;;;;;18.23;5.65;;;5.10;99.90;;;;;;5117965;28;20070;-69
2022/01/20 04:43:49;;;;;;;16.65;6.25;;;5.10;99.90;;;;;;5115725;28;20036;-68
2022/01/20 04:46:24;;;;;;;13.90;5.63;;;5.10;99.90;;;;;;5115509;28;20100;-67
2022/01/20 04:49:11;;;;;;;19.42;6.40;;;5.10;99.90;;;;;;5114129;28;20031;-71
2022/01/20 04:59:41;;;;;;;20.38;5.82;;;5.00;99.90;;;;;;5116615;28;20053;-70
2022/01/20 05:02:07;;;;;;;19.98;5.65;;;4.90;99.90;;;;;;5115972;28;20030;-68
2022/01/20 05:04:33;;;;;;;18.33;6.43;;;5.00;99.90;;;;;;5116000;28;20031;-69
2022/01/20 05:06:59;;;;;;;25.42;5.88;;;5.10;99.90;;;;;;5114222;28;20395;-68
2022/01/20 05:09:26;;;;;;;20.27;6.38;;;5.30;99.90;;;;;;5113841;28;20036;-70
2022/01/20 05:12:06;;;;;;;21.05;5.18;;;5.30;99.90;;;;;;5112431;28;20024;-70
2022/01/20 05:14:32;;;;;;;16.05;4.63;;;5.30;99.90;;;;;;5113750;28;20022;-70
2022/01/20 05:16:59;;;;;;;19.67;6.22;;;5.30;99.90;;;;;;5113470;28;20032;-67
2022/01/20 05:19:27;;;;;;;21.67;6.10;;;5.40;99.90;;;;;;5112412;28;20054;-68
2022/01/20 05:21:53;;;;;;;19.42;7.75;;;5.30;99.90;;;;;;5111872;28;20461;-67
2022/01/20 05:24:20;;;;;;;14.05;5.32;;;5.40;99.90;;;;;;5112585;28;20048;-68
2022/01/20 05:26:46;;;;;;;20.70;5.82;;;5.40;99.90;;;;;;5114197;28;20112;-75
2022/01/20 05:29:12;;;;;;;18.08;5.00;;;5.30;99.90;;;;;;5113827;28;20023;-69
2022/01/20 05:31:37;;;;;;;22.30;5.50;;;5.40;99.90;;;;;;5113591;28;20020;-67
2022/01/20 05:34:03;;;;;;;20.92;5.07;;;5.30;99.90;;;;;;5113057;28;20046;-71
2022/01/20 05:36:29;;;;;;;16.30;4.85;;;5.50;99.90;;;;;;5112453;28;20075;-67
2022/01/20 05:38:55;;;;;;;18.45;5.18;;;5.30;99.90;;;;;;5111344;28;20076;-69
2022/01/20 05:41:20;;;;;;;18.83;6.28;;;5.30;99.90;;;;;;5112866;28;20098;-67
2022/01/20 05:43:47;;;;;;;24.88;5.68;;;5.50;99.90;;;;;;5112740;28;20028;-69
2022/01/20 05:46:15;;;;;;;16.88;4.25;;;5.40;99.90;;;;;;5113273;28;20055;-68
2022/01/20 05:48:46;;;;;;;20.50;5.38;;;5.40;99.90;;;;;;5112336;28;20073;-71
2022/01/20 05:51:12;;;;;;;;;;;5.40;99.90;;;;;;5112635;28;20138;-72
2022/01/20 05:53:38;;;;;;;15.25;3.22;;;5.30;99.90;;;;;;5113816;28;19919;-68
2022/01/20 05:56:04;;;;;;;13.57;3.03;;;5.40;99.90;;;;;;5112253;28;20031;-69
2022/01/20 05:58:37;;;;;;;12.55;4.05;;;5.30;99.90;;;;;;5114913;28;20024;-69
2022/01/20 06:01:09;;;;;;;13.05;3.00;;;5.10;99.90;;;;;;5112039;28;20089;-69
2022/01/20 06:03:37;;;;;;;11.60;3.40;;;5.30;99.90;;;;;;5111370;28;20032;-68
2022/01/20 06:06:12;;;;;;;16.60;3.80;;;5.10;99.90;;;;;;5112956;28;20376;-70
2022/01/20 06:08:39;;;;;;;19.67;4.40;;;5.20;99.90;;;;;;5112235;28;20030;-70
2022/01/20 06:11:05;;;;;;;11.80;3.47;;;5.10;99.90;;;;;;5113173;28;20038;-69
2022/01/20 06:13:34;;;;;;;20.38;5.38;;;5.20;99.90;;;;;;5113377;28;20036;-69
2022/01/20 06:16:01;;;;;;;22.08;5.93;;;5.20;99.90;;;;;;5111624;28;20031;-67
2022/01/20 06:18:27;;;;;;;18.77;5.25;;;5.20;99.90;;;;;;5114436;28;20111;-67
2022/01/20 06:20:53;;;;;;;22.55;6.78;;;5.20;99.90;;;;;;5117202;28;20035;-69
2022/01/20 06:23:19;;;;;;;15.52;5.03;;;5.10;99.90;;;;;;5115878;28;20104;-68
2022/01/20 06:25:46;;;;;;;20.23;5.32;;;4.90;99.90;;;;;;5116781;28;20034;-69
2022/01/20 06:28:12;;;;;;;20.30;5.30;;;5.10;99.90;;;;;;5115706;28;20028;-67
2022/01/20 06:30:38;;;;;;;26.38;5.68;;;4.90;99.90;;;;;;5119460;28;20388;-68
2022/01/20 06:33:04;;;;;;;16.33;5.05;;;4.90;99.90;;;;;;5115702;28;20046;-68
2022/01/20 06:35:30;;;;;;;22.83;4.72;;;4.90;99.90;;;;;;5116969;28;20039;-69
2022/01/20 06:37:56;;;;;;;21.88;5.15;;;5.20;99.90;;;;;;5114920;28;20031;-67
2022/01/20 06:40:22;;;;;;;17.77;4.72;;;5.00;99.90;;;;;;5116519;27;20362;-69
2022/01/20 06:42:48;;;;;;;18.70;4.20;;;5.10;99.90;;;;;;5117746;28;20100;-69
2022/01/20 06:45:16;;;;;;;19.45;5.53;;;5.20;99.90;;;;;;5118663;28;20043;-68
2022/01/20 06:47:41;;;;;;;15.73;4.13;;;5.20;99.90;;;;;;5117830;28;20028;-69
2022/01/20 06:50:09;;;;;;;14.10;3.70;;;5.20;99.90;;;;;;5118577;28;20085;-68
2022/01/20 06:52:36;;;;;;;14.00;3.88;;;5.20;99.90;;;;;;5117036;28;20468;-67
2022/01/20 06:55:05;;;;;;;24.85;4.53;;;5.40;99.90;;;;;;5115519;28;20020;-67
2022/01/20 06:57:32;;;;;;;34.03;3.75;;;5.10;99.90;;;;;;5115334;28;20032;-70
2022/01/20 06:59:58;;;;;;;28.70;5.05;;;5.10;99.90;;;;;;5116869;28;20059;-68
2022/01/20 07:02:24;;;;;;;17.85;3.63;;;5.10;99.90;;;;;;5117072;28;20038;-68
2022/01/20 07:04:50;;;;;;;18.92;5.45;;;5.00;99.90;;;;;;5114606;28;20469;-66
2022/01/20 07:07:16;;;;;;;15.73;3.80;;;5.20;99.90;;;;;;5114160;28;20480;-66
2022/01/20 07:09:43;;;;;;;17.00;4.38;;;5.10;99.90;;;;;;5115552;28;20020;-68
2022/01/20 07:12:09;;;;;;;13.48;4.13;;;5.00;99.90;;;;;;5115325;28;20024;-67
2022/01/20 07:14:35;;;;;;;16.27;3.20;;;5.10;99.90;;;;;;5115774;28;20479;-67
2022/01/20 07:17:01;;;;;;;11.63;3.72;;;5.10;99.90;;;;;;5115115;28;20118;-69
2022/01/20 07:19:26;;;;;;;17.15;4.60;;;5.10;99.90;;;;;;5116123;28;20024;-68
2022/01/20 07:21:52;;;;;;;11.73;4.43;;;5.10;99.90;;;;;;5115516;28;20110;-70
2022/01/20 07:24:18;;;;;;;15.30;3.58;;;5.10;99.90;;;;;;5115876;28;20502;-67
2022/01/20 07:26:45;;;;;;;19.05;4.57;;;5.10;99.90;;;;;;5116187;28;20369;-69
2022/01/20 07:29:11;;;;;;;12.07;3.90;;;5.20;99.90;;;;;;5113325;28;20023;-68
2022/01/20 07:31:37;;;;;;;13.45;3.60;;;5.10;99.90;;;;;;5115429;28;20035;-68
2022/01/20 07:34:03;;;;;;;7.60;2.75;;;5.10;99.90;;;;;;5115096;27;20027;-67
2022/01/20 07:36:28;;;;;;;13.18;2.47;;;5.10;99.90;;;;;;5115327;27;20503;-67
2022/01/20 07:38:54;;;;;;;13.77;3.10;;;5.00;99.90;;;;;;5114500;28;20073;-74
2022/01/20 07:41:20;;;;;;;14.55;3.55;;;5.10;99.90;;;;;;5113938;28;20483;-66
2022/01/20 07:43:46;;;;;;;10.63;2.63;;;5.00;99.90;;;;;;5115564;28;20019;-69
2022/01/20 07:46:12;;;;;;;14.95;3.78;;;5.00;99.90;;;;;;5114167;28;20024;-67
2022/01/20 07:48:37;;;;;;;8.70;3.00;;;5.10;99.90;;;;;;5117337;28;20031;-69
2022/01/20 07:51:05;;;;;;;9.45;2.22;;;5.20;99.90;;;;;;5115901;28;20375;-69
2022/01/20 07:53:32;;;;;;;6.97;2.53;;;5.50;99.90;;;;;;5115547;28;20028;-67
2022/01/20 07:55:58;;;;;;;13.50;3.67;;;5.80;99.90;;;;;;5112702;28;20027;-68
2022/01/20 07:58:24;;;;;;;18.45;3.38;;;5.90;99.90;;;;;;5114766;27;20034;-67
2022/01/20 08:00:50;;;;;;;18.65;4.22;;;5.90;99.90;;;;;;5113458;28;20085;-70
2022/01/20 08:03:15;;;;;;;7.75;2.45;;;5.80;99.90;;;;;;5112902;28;20024;-68
2022/01/20 08:05:41;;;;;;;12.45;2.40;;;5.60;99.90;;;;;;5113295;28;20115;-68
2022/01/20 08:08:07;;;;;;;13.82;2.65;;;5.50;99.90;;;;;;5113238;28;20087;-69
2022/01/20 08:10:34;;;;;;;12.70;2.50;;;5.40;99.90;;;;;;5115036;28;20027;-69
2022/01/20 08:13:00;;;;;;;5.32;2.22;;;5.30;99.90;;;;;;5113301;28;20023;-69
2022/01/20 08:15:25;;;;;;;9.93;2.33;;;5.30;99.90;;;;;;5113443;28;20380;-67
2022/01/20 08:17:51;;;;;;;6.55;2.15;;;5.30;99.90;;;;;;5114610;28;20116;-68
2022/01/20 08:20:17;;;;;;;7.13;1.95;;;5.20;99.90;;;;;;5113894;28;20088;-70
2022/01/20 08:22:42;;;;;;;6.40;2.00;;;5.10;99.90;;;;;;5112902;28;20430;-70
2022/01/20 08:25:14;;;;;;;8.07;1.50;;;5.00;99.90;;;;;;5114217;28;20027;-68
2022/01/20 08:27:42;;;;;;;;;;;5.10;99.90;;;;;;5114394;28;20090;-68
2022/01/20 08:30:10;;;;;;;12.00;2.00;;;5.00;99.90;;;;;;5113455;28;20321;-69
2022/01/20 08:32:36;;;;;;;12.15;3.05;;;5.00;99.90;;;;;;5115289;28;20066;-69
2022/01/20 08:35:06;;;;;;;9.32;2.42;;;5.10;99.90;;;;;;5114667;28;20028;-71
2022/01/20 08:37:32;;;;;;;4.22;1.52;;;5.10;99.90;;;;;;5113334;28;20032;-70
2022/01/20 08:40:00;;;;;;;9.75;1.58;;;5.50;99.90;;;;;;5114732;28;20043;-73
2022/01/20 08:42:26;;;;;;;8.00;1.95;;;5.20;99.90;;;;;;5114647;28;20020;-68
2022/01/20 08:44:53;;;;;;;8.02;2.28;;;5.30;99.90;;;;;;5116660;28;20030;-69
2022/01/20 08:47:20;;;;;;;6.80;1.98;;;5.40;99.90;;;;;;5114553;28;20498;-70
2022/01/20 08:49:48;;;;;;;8.00;3.03;;;5.60;99.90;;;;;;5127632;27;20023;-71
2022/01/20 08:52:18;;;;;;;6.53;1.90;;;5.90;99.90;;;;;;5135821;27;20089;-67
2022/01/20 08:54:46;;;;;;;8.80;2.05;;;5.60;99.90;;;;;;5123122;27;20032;-70
2022/01/20 08:57:16;;;;;;;10.95;1.50;;;5.40;99.90;;;;;;5114431;28;20110;-70
2022/01/20 08:59:42;;;;;;;6.82;2.80;;;5.40;99.90;;;;;;5114708;28;20103;-69
2022/01/20 09:02:12;;;;;;;11.43;2.20;;;5.50;99.90;;;;;;5113781;28;20032;-71
2022/01/20 09:04:38;;;;;;;4.90;1.52;;;5.40;99.90;;;;;;5116089;28;20044;-72
2022/01/20 09:07:05;;;;;;;5.38;1.88;;;5.30;99.90;;;;;;5113068;28;20468;-69
2022/01/20 09:09:33;;;;;;;3.55;1.10;;;5.40;99.90;;;;;;5114547;28;20030;-69
2022/01/20 09:12:18;;;;;;;8.07;2.33;;;5.80;99.90;;;;;;5113906;28;20038;-70
2022/01/20 09:17:31;;;;;;;3.72;2.15;;;6.20;99.90;;;;;;5113961;28;20042;-70
2022/01/20 09:19:59;;;;;;;2.80;1.50;;;6.30;99.90;;;;;;5113253;28;20027;-69
2022/01/20 09:22:28;;;;;;;8.50;1.85;;;6.20;99.90;;;;;;5112029;28;20085;-64
2022/01/20 09:24:54;;;;;;;6.75;1.63;;;6.40;99.90;;;;;;5121335;27;20031;-68
2022/01/20 09:27:19;;;;;;;10.60;2.83;;;6.30;99.90;;;;;;5111335;28;20317;-69
2022/01/20 09:29:46;;;;;;;3.72;1.70;;;6.40;99.90;;;;;;5112165;28;20463;-68
2022/01/20 09:32:13;;;;;;;5.07;1.70;;;6.20;99.90;;;;;;5111637;28;20024;-70
2022/01/20 09:34:40;;;;;;;2.55;1.40;;;6.30;99.90;;;;;;5113005;28;20480;-69
2022/01/20 09:37:06;;;;;;;6.15;1.50;;;6.80;99.90;;;;;;5113036;28;20036;-68
2022/01/20 09:39:31;;;;;;;9.00;2.55;;;7.20;99.90;;;;;;5113547;28;20024;-69
2022/01/20 09:41:58;;;;;;;9.00;1.90;;;7.80;99.90;;;;;;5115364;28;20032;-72
2022/01/20 09:44:24;;;;;;;8.43;1.60;;;7.90;99.90;;;;;;5114658;28;20016;-69
2022/01/20 09:46:51;;;;;;;4.65;1.33;;;7.30;99.90;;;;;;5116224;28;20114;-71
2022/01/20 09:49:17;;;;;;;4.00;0.80;;;7.60;99.90;;;;;;5114471;28;20042;-69
2022/01/20 09:51:43;;;;;;;5.65;1.65;;;7.30;99.90;;;;;;5116088;28;20107;-70
2022/01/20 09:54:09;;;;;;;3.90;1.02;;;7.30;99.90;;;;;;5120608;28;20035;-70
2022/01/20 09:56:36;;;;;;;2.72;0.80;;;7.40;99.90;;;;;;5125711;27;20043;-73
2022/01/20 09:59:02;;;;;;;3.72;0.88;;;8.20;99.90;;;;;;5133494;27;20479;-68
2022/01/20 10:01:42;;;;;;;5.30;1.13;;;8.30;99.90;;;;;;5127923;27;20015;-72
2022/01/20 10:04:35;;;;;;;4.20;0.63;;;9.10;99.90;;;;;;5138258;27;20464;-73
2022/01/20 10:07:09;;;;;;;4.45;2.05;;;9.10;99.30;;;;;;5125329;27;20047;-68
2022/01/20 10:09:42;;;;;;;3.75;0.80;;;9.30;99.70;;;;;;5122172;28;20128;-73
2022/01/20 10:12:09;;;;;;;13.38;2.60;;;9.40;99.90;;;;;;5118927;28;20026;-67
2022/01/20 10:14:51;;;;;;;36.22;3.42;;;9.30;99.90;;;;;;5119359;27;20028;-72
2022/01/20 10:17:21;;;;;;;5.47;1.42;;;9.10;99.90;;;;;;5118084;28;20154;-70
2022/01/20 10:19:51;;;;;;;5.35;1.02;;;9.50;99.90;;;;;;5137554;27;20068;-72
2022/01/20 10:22:22;;;;;;;10.35;1.38;;;9.80;99.90;;;;;;5140886;27;20023;-70
2022/01/20 10:25:03;;;;;;;9.10;1.80;;;9.90;99.90;;;;;;5131430;27;20061;-72
2022/01/20 10:27:45;;;;;;;6.00;1.35;;;10.00;99.90;;;;;;5116216;28;20407;-68
2022/01/20 10:30:11;;;;;;;4.55;1.50;;;9.80;99.90;;;;;;5120257;28;20054;-72
2022/01/20 10:32:48;;;;;;;6.97;1.85;;;9.70;99.90;;;;;;5130520;27;20034;-71
2022/01/20 10:35:16;;;;;;;10.48;1.63;;;9.60;99.90;;;;;;5137616;27;20357;-71
2022/01/20 10:38:11;;;;;;;6.63;2.35;;;9.60;99.90;;;;;;5139989;27;20023;-72
2022/01/20 10:40:50;;;;;;;4.43;1.10;;;9.10;99.90;;;;;;5134429;27;20068;-67
2022/01/20 10:43:36;;;;;;;6.78;1.15;;;8.20;99.90;;;;;;5124447;27;20039;-72
2022/01/20 10:46:11;;;;;;;12.35;1.50;;;7.80;99.90;;;;;;5128585;27;20038;-72
2022/01/20 10:48:38;;;;;;;4.93;1.65;;;7.50;99.90;;;;;;5128917;27;20023;-74
2022/01/20 10:51:18;;;;;;;15.38;1.77;;;7.30;99.90;;;;;;5127806;27;20044;-72
2022/01/20 10:53:44;;;;;;;13.65;1.67;;;7.20;99.90;;;;;;5135274;27;20039;-71
2022/01/20 10:56:10;;;;;;;8.43;1.55;;;7.10;99.90;;;;;;5136346;27;20023;-71
2022/01/20 10:58:37;;;;;;;7.57;2.53;;;6.90;99.90;;;;;;5135114;27;20393;-71
2022/01/20 11:01:04;;;;;;;12.60;1.58;;;6.90;99.90;;;;;;5136186;27;20384;-71
2022/01/20 11:03:31;;;;;;;3.38;1.27;;;7.00;99.90;;;;;;5136614;27;20027;-74
2022/01/20 11:05:59;;;;;;;9.43;2.92;;;6.90;99.90;;;;;;5137913;27;20027;-70
2022/01/20 11:08:24;;;;;;;11.88;3.35;;;6.70;99.90;;;;;;5138296;27;20079;-68
2022/01/20 11:10:52;;;;;;;11.02;2.10;;;6.70;99.90;;;;;;5137256;27;20102;-69
2022/01/20 11:13:20;;;;;;;11.68;1.88;;;6.70;99.90;;;;;;5135990;27;20027;-72
2022/01/20 11:15:46;;;;;;;10.02;1.77;;;7.30;99.90;;;;;;5136461;27;20039;-72
2022/01/20 11:18:13;;;;;;;13.80;3.10;;;7.70;99.90;;;;;;5134495;27;20035;-70
2022/01/20 11:20:47;;;;;;;5.47;1.50;;;7.90;99.90;;;;;;5118813;27;20379;-71
2022/01/20 11:23:13;;;;;;;8.10;1.88;;;7.90;99.90;;;;;;5135443;27;20504;-71
2022/01/20 11:25:41;;;;;;;6.68;1.80;;;8.50;99.90;;;;;;5136451;27;20039;-73
2022/01/20 11:28:21;;;;;;;8.57;1.58;;;9.60;99.30;;;;;;5136729;27;20054;-70
2022/01/20 11:30:55;;;;;;;6.15;1.52;;;10.40;96.90;;;;;;5136464;27;20019;-71
2022/01/20 11:33:35;;;;;;;6.93;1.48;;;10.80;98.30;;;;;;5134970;27;20070;-71
2022/01/20 11:36:02;;;;;;;5.95;1.73;;;;;;;;;;5136248;27;20031;-71
2022/01/20 11:38:41;;;;;;;6.72;1.98;;;11.60;94.20;;;;;;5117124;27;20365;-72
2022/01/20 11:41:08;;;;;;;6.32;1.50;;;12.60;91.50;;;;;;5135950;27;20015;-71
2022/01/20 11:43:40;;;;;;;7.68;1.67;;;13.00;87.10;;;;;;5136099;27;20415;-70
2022/01/20 11:46:15;;;;;;;5.38;2.38;;;13.10;87.90;;;;;;5135470;27;20064;-73
2022/01/20 11:49:00;;;;;;;5.20;1.08;;;13.20;79.20;;;;;;5135792;27;20456;-70
2022/01/20 11:51:56;;;;;;;6.38;1.33;;;12.70;81.20;;;;;;5134772;27;20433;-72
2022/01/20 11:54:33;;;;;;;8.63;1.33;;;;;;;;;;5128626;27;20048;-70
2022/01/20 11:57:16;;;;;;;7.72;1.33;;;13.90;92.80;;;;;;5136497;27;20028;-73
2022/01/20 11:59:50;;;;;;;6.32;1.35;;;12.70;96.50;;;;;;5137037;27;20019;-74
2022/01/20 12:02:34;;;;;;;4.13;1.23;;;11.90;95.40;;;;;;5135990;27;20023;-71
2022/01/20 12:05:29;;;;;;;11.50;1.75;;;11.20;94.90;;;;;;5135837;27;20045;-74
2022/01/20 12:08:10;;;;;;;9.40;1.33;;;10.80;94.30;;;;;;5136317;27;20066;-73
2022/01/20 12:10:37;;;;;;;5.63;1.48;;;10.10;94.00;;;;;;5135502;27;20376;-73
2022/01/20 12:13:10;;;;;;;9.63;1.35;;;9.80;94.00;;;;;;5135353;27;20389;-70
2022/01/20 12:15:50;;;;;;;6.80;1.27;;;9.20;94.00;;;;;;5132672;27;20069;-70
2022/01/20 12:18:16;;;;;;;5.65;1.45;;;8.60;94.80;;;;;;5134568;27;20057;-72
2022/01/20 12:20:42;;;;;;;9.48;1.77;;;8.30;95.10;;;;;;5133893;27;20031;-70
2022/01/20 12:23:08;;;;;;;6.00;1.45;;;8.00;92.80;;;;;;5134366;27;20137;-71
2022/01/20 12:25:36;;;;;;;10.15;2.20;;;7.60;94.30;;;;;;5134905;27;20118;-70
2022/01/20 12:28:09;;;;;;;6.10;1.40;;;7.40;96.40;;;;;;5116952;27;20058;-69
2022/01/20 12:30:39;;;;;;;4.85;0.98;;;7.30;97.50;;;;;;5133685;27;20495;-68
2022/01/20 12:33:12;;;;;;;8.82;1.50;;;7.20;98.70;;;;;;5134041;27;20106;-69
2022/01/20 12:35:41;;;;;;;9.02;1.25;;;6.90;99.90;;;;;;5134122;27;20472;-69
2022/01/20 12:38:20;;;;;;;7.65;1.30;;;6.90;99.90;;;;;;5133966;27;20091;-73
2022/01/20 12:40:48;;;;;;;5.85;1.30;;;7.10;99.90;;;;;;5134757;27;20031;-70
2022/01/20 12:43:14;;;;;;;10.70;1.70;;;6.90;99.90;;;;;;5132843;27;20026;-69
2022/01/20 12:45:56;;;;;;;9.02;2.08;;;7.00;99.90;;;;;;5134217;27;20046;-67
2022/01/20 12:48:22;;;;;;;;;;;7.10;99.90;;;;;;5133303;27;20479;-68
2022/01/20 12:51:01;;;;;;;6.32;1.20;;;7.20;99.90;;;;;;5134480;27;19903;-72
2022/01/20 12:53:30;;;;;;;6.53;1.23;;;7.20;99.90;;;;;;5133818;27;20453;-67
2022/01/20 12:55:56;;;;;;;7.40;1.40;;;7.20;99.90;;;;;;5132672;27;20038;-69
2022/01/20 12:58:22;;;;;;;5.75;1.45;;;7.00;99.90;;;;;;5132298;27;20035;-68
2022/01/20 13:00:58;;;;;;;8.60;1.80;;;7.10;99.90;;;;;;5134412;27;20428;-73
2022/01/20 13:03:37;;;;;;;9.20;1.33;;;7.00;99.90;;;;;;5132092;27;20084;-68
2022/01/20 13:06:04;;;;;;;6.40;1.35;;;6.80;99.90;;;;;;5132905;27;20098;-68
2022/01/20 13:08:34;;;;;;;10.13;1.40;;;6.80;99.90;;;;;;5135034;27;20104;-68
2022/01/20 13:11:06;;;;;;;14.55;2.28;;;6.80;99.90;;;;;;5134823;27;20027;-67
2022/01/20 13:13:31;;;;;;;6.35;1.15;;;6.70;99.90;;;;;;5131360;27;20425;-68
2022/01/20 13:15:57;;;;;;;4.93;1.10;;;6.60;99.90;;;;;;5133367;27;20035;-71
2022/01/20 13:18:23;;;;;;;9.05;1.80;;;6.50;99.90;;;;;;5133694;27;20117;-74
2022/01/20 13:20:58;;;;;;;5.50;1.50;;;6.60;99.90;;;;;;5135486;27;20019;-70
2022/01/20 13:26:08;;;;;;;3.80;1.52;;;6.80;99.90;;;;;;5134372;27;20130;-70
2022/01/20 13:28:34;;;;;;;2.92;0.80;;;6.70;99.90;;;;;;5133444;27;20020;-71
2022/01/20 13:31:14;;;;;;;7.35;2.00;;;7.10;99.90;;;;;;5132519;27;20468;-70
2022/01/20 13:33:40;;;;;;;5.55;1.42;;;7.70;99.90;;;;;;5133763;27;20023;-71
2022/01/20 13:36:05;;;;;;;5.25;1.10;;;8.90;99.10;;;;;;5132598;28;20460;-70
2022/01/20 13:38:33;;;;;;;11.60;1.77;;;9.90;97.40;;;;;;5133480;28;20039;-70
2022/01/20 13:41:19;;;;;;;5.45;1.40;;;10.40;97.00;;;;;;5135635;27;20020;-66
2022/01/20 13:46:38;;;;;;;4.00;0.77;;;;;;;;;;5114260;28;20126;-74
2022/01/20 13:49:11;;;;;;;4.57;1.20;;;13.80;94.40;;;;;;5132298;28;20257;-69
2022/01/20 13:51:37;;;;;;;6.43;1.20;;;13.60;87.60;;;;;;5129559;27;20035;-69
2022/01/20 13:54:03;;;;;;;3.63;1.13;;;12.30;84.50;;;;;;5133447;27;20366;-69
2022/01/20 13:56:30;;;;;;;4.40;0.80;;;12.10;84.10;;;;;;5132860;28;20330;-72